sensor_id;sensor_type;location;lat;lon;timestamp;P1;durP1;ratioP1;P2;durP2;ratioP2
63664;SDS011;49820;33.966;73.390;2023-10-13T00:02:17;6.80;;;3.40;;
63664;SDS011;49820;33.966;73.390;2023-10-13T00:04:49;6.72;;;3.67;;
63664;SDS011;49820;33.966;73.390;2023-10-13T00:07:18;6.43;;;3.23;;
63664;SDS011;49820;33.966;73.390;2023-10-13T00:09:47;6.00;;;4.00;;
63664;SDS011;49820;33.966;73.390;2023-10-13T00:12:16;6.07;;;3.40;;
63664;SDS011;49820;33.966;73.390;2023-10-13T00:14:51;6.80;;;3.40;;
63664;SDS011;49820;33.966;73.390;2023-10-13T00:17:21;8.10;;;3.17;;
63664;SDS011;49820;33.966;73.390;2023-10-13T00:19:53;6.40;;;3.92;;
63664;SDS011;49820;33.966;73.390;2023-10-13T00:22:22;6.83;;;3.57;;
63664;SDS011;49820;33.966;73.390;2023-10-13T00:24:53;5.70;;;3.70;;
63664;SDS011;49820;33.966;73.390;2023-10-13T00:27:26;6.87;;;3.90;;
63664;SDS011;49820;33.966;73.390;2023-10-13T00:30:02;6.82;;;3.85;;
63664;SDS011;49820;33.966;73.390;2023-10-13T00:32:53;7.78;;;4.00;;
63664;SDS011;49820;33.966;73.390;2023-10-13T00:35:26;7.20;;;4.18;;
63664;SDS011;49820;33.966;73.390;2023-10-13T00:38:05;7.40;;;4.00;;
63664;SDS011;49820;33.966;73.390;2023-10-13T00:40:47;8.10;;;3.77;;
63664;SDS011;49820;33.966;73.390;2023-10-13T00:43:22;6.90;;;3.73;;
63664;SDS011;49820;33.966;73.390;2023-10-13T00:45:52;8.13;;;3.60;;
63664;SDS011;49820;33.966;73.390;2023-10-13T00:48:25;5.45;;;3.20;;
63664;SDS011;49820;33.966;73.390;2023-10-13T00:51:03;4.95;;;3.30;;
63664;SDS011;49820;33.966;73.390;2023-10-13T00:53:40;5.72;;;3.25;;
63664;SDS011;49820;33.966;73.390;2023-10-13T00:56:09;12.93;;;3.88;;
63664;SDS011;49820;33.966;73.390;2023-10-13T00:58:49;5.70;;;3.13;;
63664;SDS011;49820;33.966;73.390;2023-10-13T01:01:20;7.63;;;3.85;;
63664;SDS011;49820;33.966;73.390;2023-10-13T01:04:01;5.23;;;3.37;;
63664;SDS011;49820;33.966;73.390;2023-10-13T01:06:32;7.82;;;3.67;;
63664;SDS011;49820;33.966;73.390;2023-10-13T01:09:02;5.53;;;3.60;;
63664;SDS011;49820;33.966;73.390;2023-10-13T01:11:45;8.98;;;3.80;;
63664;SDS011;49820;33.966;73.390;2023-10-13T01:14:22;7.13;;;4.18;;
63664;SDS011;49820;33.966;73.390;2023-10-13T01:16:55;5.30;;;3.70;;
63664;SDS011;49820;33.966;73.390;2023-10-13T01:19:26;7.07;;;4.38;;
63664;SDS011;49820;33.966;73.390;2023-10-13T01:21:56;8.02;;;4.40;;
63664;SDS011;49820;33.966;73.390;2023-10-13T01:24:32;6.32;;;4.10;;
63664;SDS011;49820;33.966;73.390;2023-10-13T01:27:05;7.15;;;4.47;;
63664;SDS011;49820;33.966;73.390;2023-10-13T01:29:48;9.00;;;5.07;;
63664;SDS011;49820;33.966;73.390;2023-10-13T01:32:19;7.25;;;4.65;;
63664;SDS011;49820;33.966;73.390;2023-10-13T01:34:50;8.05;;;5.45;;
63664;SDS011;49820;33.966;73.390;2023-10-13T01:37:23;7.43;;;5.18;;
63664;SDS011;49820;33.966;73.390;2023-10-13T01:39:52;8.07;;;4.80;;
63664;SDS011;49820;33.966;73.390;2023-10-13T01:42:21;8.02;;;4.63;;
63664;SDS011;49820;33.966;73.390;2023-10-13T01:44:52;7.70;;;4.80;;
63664;SDS011;49820;33.966;73.390;2023-10-13T01:47:33;9.48;;;4.95;;
63664;SDS011;49820;33.966;73.390;2023-10-13T01:50:02;30.88;;;14.80;;
63664;SDS011;49820;33.966;73.390;2023-10-13T01:52:43;17.70;;;9.77;;
63664;SDS011;49820;33.966;73.390;2023-10-13T01:55:13;20.05;;;8.63;;
63664;SDS011;49820;33.966;73.390;2023-10-13T01:57:42;15.30;;;8.57;;
63664;SDS011;49820;33.966;73.390;2023-10-13T02:00:15;11.82;;;6.90;;
63664;SDS011;49820;33.966;73.390;2023-10-13T02:02:48;13.68;;;8.35;;
63664;SDS011;49820;33.966;73.390;2023-10-13T02:05:19;35.53;;;27.13;;
63664;SDS011;49820;33.966;73.390;2023-10-13T02:07:48;57.88;;;43.67;;
63664;SDS011;49820;33.966;73.390;2023-10-13T02:10:17;36.97;;;32.97;;
63664;SDS011;49820;33.966;73.390;2023-10-13T02:12:51;17.63;;;15.40;;
63664;SDS011;49820;33.966;73.390;2023-10-13T02:15:26;10.93;;;8.03;;
63664;SDS011;49820;33.966;73.390;2023-10-13T02:18:02;9.60;;;5.32;;
63664;SDS011;49820;33.966;73.390;2023-10-13T02:20:32;7.78;;;4.80;;
63664;SDS011;49820;33.966;73.390;2023-10-13T02:23:09;7.88;;;5.30;;
63664;SDS011;49820;33.966;73.390;2023-10-13T02:25:42;18.77;;;16.70;;
63664;SDS011;49820;33.966;73.390;2023-10-13T02:28:12;9.32;;;6.20;;
63664;SDS011;49820;33.966;73.390;2023-10-13T02:30:43;19.10;;;17.10;;
63664;SDS011;49820;33.966;73.390;2023-10-13T02:33:13;10.70;;;7.28;;
63664;SDS011;49820;33.966;73.390;2023-10-13T02:35:43;7.97;;;6.00;;
63664;SDS011;49820;33.966;73.390;2023-10-13T02:38:22;8.23;;;4.93;;
63664;SDS011;49820;33.966;73.390;2023-10-13T02:41:10;9.73;;;5.60;;
63664;SDS011;49820;33.966;73.390;2023-10-13T02:43:47;10.15;;;4.60;;
63664;SDS011;49820;33.966;73.390;2023-10-13T02:46:15;10.75;;;4.90;;
63664;SDS011;49820;33.966;73.390;2023-10-13T02:48:45;8.15;;;4.40;;
63664;SDS011;49820;33.966;73.390;2023-10-13T02:51:14;12.47;;;8.30;;
63664;SDS011;49820;33.966;73.390;2023-10-13T02:53:46;10.57;;;6.07;;
63664;SDS011;49820;33.966;73.390;2023-10-13T02:56:20;7.87;;;4.40;;
63664;SDS011;49820;33.966;73.390;2023-10-13T02:58:49;45.10;;;37.70;;
63664;SDS011;49820;33.966;73.390;2023-10-13T03:01:24;30.77;;;26.45;;
63664;SDS011;49820;33.966;73.390;2023-10-13T03:03:57;18.20;;;15.85;;
63664;SDS011;49820;33.966;73.390;2023-10-13T03:06:27;10.50;;;6.10;;
63664;SDS011;49820;33.966;73.390;2023-10-13T03:09:02;6.30;;;4.00;;
63664;SDS011;49820;33.966;73.390;2023-10-13T03:11:46;7.07;;;3.95;;
63664;SDS011;49820;33.966;73.390;2023-10-13T03:14:18;7.03;;;4.13;;
63664;SDS011;49820;33.966;73.390;2023-10-13T03:17:02;8.75;;;5.57;;
63664;SDS011;49820;33.966;73.390;2023-10-13T03:19:36;31.75;;;21.27;;
63664;SDS011;49820;33.966;73.390;2023-10-13T03:22:08;13.23;;;7.75;;
63664;SDS011;49820;33.966;73.390;2023-10-13T03:24:44;16.10;;;7.22;;
63664;SDS011;49820;33.966;73.390;2023-10-13T03:27:17;14.93;;;6.05;;
63664;SDS011;49820;33.966;73.390;2023-10-13T03:29:51;9.10;;;4.63;;
63664;SDS011;49820;33.966;73.390;2023-10-13T03:32:22;22.42;;;7.97;;
63664;SDS011;49820;33.966;73.390;2023-10-13T03:34:55;12.07;;;5.30;;
63664;SDS011;49820;33.966;73.390;2023-10-13T03:37:29;10.80;;;4.45;;
63664;SDS011;49820;33.966;73.390;2023-10-13T03:42:48;11.43;;;6.18;;
63664;SDS011;49820;33.966;73.390;2023-10-13T03:45:45;11.52;;;6.90;;
63664;SDS011;49820;33.966;73.390;2023-10-13T03:48:28;6.82;;;5.00;;
63664;SDS011;49820;33.966;73.390;2023-10-13T03:50:59;10.20;;;5.03;;
63664;SDS011;49820;33.966;73.390;2023-10-13T03:53:35;8.30;;;4.88;;
63664;SDS011;49820;33.966;73.390;2023-10-13T03:56:22;10.63;;;5.93;;
63664;SDS011;49820;33.966;73.390;2023-10-13T03:59:08;9.18;;;4.95;;
63664;SDS011;49820;33.966;73.390;2023-10-13T04:01:47;8.43;;;5.32;;
63664;SDS011;49820;33.966;73.390;2023-10-13T04:04:19;12.07;;;7.07;;
63664;SDS011;49820;33.966;73.390;2023-10-13T04:07:06;15.98;;;7.25;;
63664;SDS011;49820;33.966;73.390;2023-10-13T04:09:36;9.63;;;5.50;;
63664;SDS011;49820;33.966;73.390;2023-10-13T04:12:23;8.27;;;4.68;;
63664;SDS011;49820;33.966;73.390;2023-10-13T04:15:10;6.40;;;4.10;;
63664;SDS011;49820;33.966;73.390;2023-10-13T04:17:51;9.13;;;4.70;;
63664;SDS011;49820;33.966;73.390;2023-10-13T04:20:20;7.45;;;4.28;;
63664;SDS011;49820;33.966;73.390;2023-10-13T04:23:00;8.13;;;5.13;;
63664;SDS011;49820;33.966;73.390;2023-10-13T04:25:29;9.88;;;4.90;;
63664;SDS011;49820;33.966;73.390;2023-10-13T04:28:08;9.05;;;5.05;;
63664;SDS011;49820;33.966;73.390;2023-10-13T04:30:43;7.70;;;4.50;;
63664;SDS011;49820;33.966;73.390;2023-10-13T04:33:17;8.40;;;4.80;;
63664;SDS011;49820;33.966;73.390;2023-10-13T04:36:04;8.68;;;4.60;;
63664;SDS011;49820;33.966;73.390;2023-10-13T04:38:58;7.43;;;4.30;;
63664;SDS011;49820;33.966;73.390;2023-10-13T04:44:16;8.88;;;4.80;;
63664;SDS011;49820;33.966;73.390;2023-10-13T04:46:58;10.02;;;5.18;;
63664;SDS011;49820;33.966;73.390;2023-10-13T04:49:29;6.57;;;4.43;;
63664;SDS011;49820;33.966;73.390;2023-10-13T04:52:03;5.80;;;4.30;;
63664;SDS011;49820;33.966;73.390;2023-10-13T04:54:41;6.97;;;5.60;;
63664;SDS011;49820;33.966;73.390;2023-10-13T04:57:11;10.05;;;6.47;;
63664;SDS011;49820;33.966;73.390;2023-10-13T04:59:59;9.52;;;5.60;;
63664;SDS011;49820;33.966;73.390;2023-10-13T05:02:33;11.75;;;6.05;;
63664;SDS011;49820;33.966;73.390;2023-10-13T05:05:07;14.52;;;8.25;;
63664;SDS011;49820;33.966;73.390;2023-10-13T05:07:58;12.88;;;6.43;;
63664;SDS011;49820;33.966;73.390;2023-10-13T05:10:45;12.60;;;6.28;;
63664;SDS011;49820;33.966;73.390;2023-10-13T05:13:32;14.02;;;7.18;;
63664;SDS011;49820;33.966;73.390;2023-10-13T05:16:19;17.93;;;9.17;;
63664;SDS011;49820;33.966;73.390;2023-10-13T05:19:06;12.20;;;6.30;;
63664;SDS011;49820;33.966;73.390;2023-10-13T05:21:54;11.75;;;7.05;;
63664;SDS011;49820;33.966;73.390;2023-10-13T05:24:41;10.30;;;5.90;;
63664;SDS011;49820;33.966;73.390;2023-10-13T05:27:28;11.07;;;6.28;;
63664;SDS011;49820;33.966;73.390;2023-10-13T05:30:15;13.05;;;7.07;;
63664;SDS011;49820;33.966;73.390;2023-10-13T05:33:03;13.57;;;7.40;;
63664;SDS011;49820;33.966;73.390;2023-10-13T05:35:51;11.27;;;6.68;;
63664;SDS011;49820;33.966;73.390;2023-10-13T05:38:38;15.87;;;8.97;;
63664;SDS011;49820;33.966;73.390;2023-10-13T05:41:25;17.02;;;9.75;;
63664;SDS011;49820;33.966;73.390;2023-10-13T05:44:12;13.85;;;8.48;;
63664;SDS011;49820;33.966;73.390;2023-10-13T05:46:59;11.10;;;7.72;;
63664;SDS011;49820;33.966;73.390;2023-10-13T05:49:47;15.27;;;8.50;;
63664;SDS011;49820;33.966;73.390;2023-10-13T05:52:20;13.20;;;8.95;;
63664;SDS011;49820;33.966;73.390;2023-10-13T05:55:08;13.15;;;8.02;;
63664;SDS011;49820;33.966;73.390;2023-10-13T05:57:57;13.17;;;8.07;;
63664;SDS011;49820;33.966;73.390;2023-10-13T06:00:45;15.70;;;8.02;;
63664;SDS011;49820;33.966;73.390;2023-10-13T06:03:32;12.43;;;7.60;;
63664;SDS011;49820;33.966;73.390;2023-10-13T06:06:19;11.73;;;7.82;;
63664;SDS011;49820;33.966;73.390;2023-10-13T06:09:07;13.48;;;8.32;;
63664;SDS011;49820;33.966;73.390;2023-10-13T06:11:54;17.40;;;8.73;;
63664;SDS011;49820;33.966;73.390;2023-10-13T06:14:45;13.77;;;8.00;;
63664;SDS011;49820;33.966;73.390;2023-10-13T06:17:33;14.55;;;7.53;;
63664;SDS011;49820;33.966;73.390;2023-10-13T06:20:19;12.55;;;8.27;;
63664;SDS011;49820;33.966;73.390;2023-10-13T06:23:07;14.07;;;8.60;;
63664;SDS011;49820;33.966;73.390;2023-10-13T06:25:54;12.02;;;7.85;;
63664;SDS011;49820;33.966;73.390;2023-10-13T06:28:42;14.20;;;8.63;;
63664;SDS011;49820;33.966;73.390;2023-10-13T06:31:13;15.02;;;8.38;;
63664;SDS011;49820;33.966;73.390;2023-10-13T06:33:54;14.65;;;8.02;;
63664;SDS011;49820;33.966;73.390;2023-10-13T06:36:23;17.30;;;8.55;;
63664;SDS011;49820;33.966;73.390;2023-10-13T06:38:53;16.27;;;8.80;;
63664;SDS011;49820;33.966;73.390;2023-10-13T06:41:45;15.93;;;8.70;;
63664;SDS011;49820;33.966;73.390;2023-10-13T06:44:14;16.95;;;9.52;;
63664;SDS011;49820;33.966;73.390;2023-10-13T06:46:43;15.18;;;8.73;;
63664;SDS011;49820;33.966;73.390;2023-10-13T06:49:12;15.57;;;8.80;;
63664;SDS011;49820;33.966;73.390;2023-10-13T06:51:43;17.20;;;9.40;;
63664;SDS011;49820;33.966;73.390;2023-10-13T06:54:14;15.38;;;9.25;;
63664;SDS011;49820;33.966;73.390;2023-10-13T06:56:49;18.98;;;10.43;;
63664;SDS011;49820;33.966;73.390;2023-10-13T06:59:20;15.52;;;9.02;;
63664;SDS011;49820;33.966;73.390;2023-10-13T07:01:55;15.35;;;9.13;;
63664;SDS011;49820;33.966;73.390;2023-10-13T07:04:53;16.52;;;9.02;;
63664;SDS011;49820;33.966;73.390;2023-10-13T07:07:36;14.20;;;9.05;;
63664;SDS011;49820;33.966;73.390;2023-10-13T07:10:09;13.18;;;8.48;;
63664;SDS011;49820;33.966;73.390;2023-10-13T07:12:40;15.48;;;8.60;;
63664;SDS011;49820;33.966;73.390;2023-10-13T07:15:11;16.10;;;8.32;;
63664;SDS011;49820;33.966;73.390;2023-10-13T07:17:50;14.87;;;8.70;;
63664;SDS011;49820;33.966;73.390;2023-10-13T07:20:27;13.27;;;7.95;;
63664;SDS011;49820;33.966;73.390;2023-10-13T07:22:56;15.67;;;8.00;;
63664;SDS011;49820;33.966;73.390;2023-10-13T07:25:32;16.60;;;9.98;;
63664;SDS011;49820;33.966;73.390;2023-10-13T07:28:07;15.82;;;9.10;;
63664;SDS011;49820;33.966;73.390;2023-10-13T07:30:38;14.07;;;8.30;;
63664;SDS011;49820;33.966;73.390;2023-10-13T07:33:16;13.65;;;8.57;;
63664;SDS011;49820;33.966;73.390;2023-10-13T07:35:49;13.27;;;7.78;;
63664;SDS011;49820;33.966;73.390;2023-10-13T07:38:29;16.92;;;8.48;;
63664;SDS011;49820;33.966;73.390;2023-10-13T07:41:04;15.98;;;8.60;;
63664;SDS011;49820;33.966;73.390;2023-10-13T07:43:36;13.35;;;7.85;;
63664;SDS011;49820;33.966;73.390;2023-10-13T07:46:05;16.33;;;8.30;;
63664;SDS011;49820;33.966;73.390;2023-10-13T07:48:43;14.30;;;7.95;;
63664;SDS011;49820;33.966;73.390;2023-10-13T07:51:13;15.55;;;8.20;;
63664;SDS011;49820;33.966;73.390;2023-10-13T07:53:45;13.02;;;7.93;;
63664;SDS011;49820;33.966;73.390;2023-10-13T07:56:17;15.02;;;8.18;;
63664;SDS011;49820;33.966;73.390;2023-10-13T07:58:47;15.30;;;9.00;;
63664;SDS011;49820;33.966;73.390;2023-10-13T08:01:31;14.43;;;7.72;;
63664;SDS011;49820;33.966;73.390;2023-10-13T08:04:02;12.93;;;7.90;;
63664;SDS011;49820;33.966;73.390;2023-10-13T08:06:39;14.52;;;7.97;;
63664;SDS011;49820;33.966;73.390;2023-10-13T08:09:12;15.50;;;8.57;;
63664;SDS011;49820;33.966;73.390;2023-10-13T08:12:08;14.90;;;7.80;;
63664;SDS011;49820;33.966;73.390;2023-10-13T08:14:41;13.75;;;8.70;;
63664;SDS011;49820;33.966;73.390;2023-10-13T08:17:11;12.75;;;8.00;;
63664;SDS011;49820;33.966;73.390;2023-10-13T08:19:42;11.57;;;8.05;;
63664;SDS011;49820;33.966;73.390;2023-10-13T08:22:17;17.00;;;9.45;;
63664;SDS011;49820;33.966;73.390;2023-10-13T08:24:47;12.43;;;7.63;;
63664;SDS011;49820;33.966;73.390;2023-10-13T08:27:20;19.50;;;8.93;;
63664;SDS011;49820;33.966;73.390;2023-10-13T08:30:03;17.90;;;9.07;;
63664;SDS011;49820;33.966;73.390;2023-10-13T08:33:01;13.93;;;8.95;;
63664;SDS011;49820;33.966;73.390;2023-10-13T08:35:45;14.30;;;8.20;;
63664;SDS011;49820;33.966;73.390;2023-10-13T08:38:25;19.25;;;8.70;;
63664;SDS011;49820;33.966;73.390;2023-10-13T08:40:58;16.55;;;10.23;;
63664;SDS011;49820;33.966;73.390;2023-10-13T08:43:27;18.52;;;8.63;;
63664;SDS011;49820;33.966;73.390;2023-10-13T08:46:11;15.02;;;9.13;;
63664;SDS011;49820;33.966;73.390;2023-10-13T08:49:03;15.60;;;8.50;;
63664;SDS011;49820;33.966;73.390;2023-10-13T08:51:45;16.73;;;8.45;;
63664;SDS011;49820;33.966;73.390;2023-10-13T08:54:18;14.25;;;7.95;;
63664;SDS011;49820;33.966;73.390;2023-10-13T08:56:49;18.35;;;8.27;;
63664;SDS011;49820;33.966;73.390;2023-10-13T08:59:24;14.55;;;7.88;;
63664;SDS011;49820;33.966;73.390;2023-10-13T09:02:13;16.45;;;8.50;;
63664;SDS011;49820;33.966;73.390;2023-10-13T09:04:49;16.42;;;8.27;;
63664;SDS011;49820;33.966;73.390;2023-10-13T09:07:27;17.05;;;8.35;;
63664;SDS011;49820;33.966;73.390;2023-10-13T09:09:56;17.98;;;8.00;;
63664;SDS011;49820;33.966;73.390;2023-10-13T09:12:26;15.25;;;7.85;;
63664;SDS011;49820;33.966;73.390;2023-10-13T09:15:08;16.73;;;8.20;;
63664;SDS011;49820;33.966;73.390;2023-10-13T09:17:41;16.13;;;8.90;;
63664;SDS011;49820;33.966;73.390;2023-10-13T09:20:16;16.27;;;8.40;;
63664;SDS011;49820;33.966;73.390;2023-10-13T09:23:11;19.35;;;9.43;;
63664;SDS011;49820;33.966;73.390;2023-10-13T09:26:13;11.40;;;7.57;;
63664;SDS011;49820;33.966;73.390;2023-10-13T09:28:42;17.15;;;7.82;;
63664;SDS011;49820;33.966;73.390;2023-10-13T09:31:12;13.88;;;7.53;;
63664;SDS011;49820;33.966;73.390;2023-10-13T09:33:54;17.63;;;7.50;;
63664;SDS011;49820;33.966;73.390;2023-10-13T09:36:23;13.30;;;6.90;;
63664;SDS011;49820;33.966;73.390;2023-10-13T09:38:54;15.82;;;7.45;;
63664;SDS011;49820;33.966;73.390;2023-10-13T09:41:57;16.90;;;7.55;;
63664;SDS011;49820;33.966;73.390;2023-10-13T09:44:27;15.33;;;7.63;;
63664;SDS011;49820;33.966;73.390;2023-10-13T09:47:01;14.52;;;7.32;;
63664;SDS011;49820;33.966;73.390;2023-10-13T09:49:42;12.85;;;7.38;;
63664;SDS011;49820;33.966;73.390;2023-10-13T09:52:19;21.38;;;8.10;;
63664;SDS011;49820;33.966;73.390;2023-10-13T09:55:06;14.93;;;8.13;;
63664;SDS011;49820;33.966;73.390;2023-10-13T09:57:43;13.48;;;6.90;;
63664;SDS011;49820;33.966;73.390;2023-10-13T10:00:18;14.52;;;7.50;;
63664;SDS011;49820;33.966;73.390;2023-10-13T10:03:05;12.75;;;7.32;;
63664;SDS011;49820;33.966;73.390;2023-10-13T10:05:43;14.23;;;7.60;;
63664;SDS011;49820;33.966;73.390;2023-10-13T10:08:28;18.60;;;7.60;;
63664;SDS011;49820;33.966;73.390;2023-10-13T10:16:39;17.00;;;7.75;;
63664;SDS011;49820;33.966;73.390;2023-10-13T10:19:31;17.83;;;10.15;;
63664;SDS011;49820;33.966;73.390;2023-10-13T10:22:04;36.28;;;19.75;;
63664;SDS011;49820;33.966;73.390;2023-10-13T10:24:55;38.78;;;18.85;;
63664;SDS011;49820;33.966;73.390;2023-10-13T10:27:34;53.58;;;25.38;;
63664;SDS011;49820;33.966;73.390;2023-10-13T10:30:03;32.35;;;13.23;;
63664;SDS011;49820;33.966;73.390;2023-10-13T10:32:33;35.30;;;17.70;;
63664;SDS011;49820;33.966;73.390;2023-10-13T10:35:04;23.27;;;11.05;;
63664;SDS011;49820;33.966;73.390;2023-10-13T10:37:36;16.50;;;8.80;;
63664;SDS011;49820;33.966;73.390;2023-10-13T10:40:08;17.90;;;9.70;;
63664;SDS011;49820;33.966;73.390;2023-10-13T10:42:50;19.77;;;9.98;;
63664;SDS011;49820;33.966;73.390;2023-10-13T10:45:20;23.15;;;9.45;;
63664;SDS011;49820;33.966;73.390;2023-10-13T10:47:50;22.35;;;12.00;;
63664;SDS011;49820;33.966;73.390;2023-10-13T10:50:26;22.50;;;10.63;;
63664;SDS011;49820;33.966;73.390;2023-10-13T10:53:05;20.40;;;9.15;;
63664;SDS011;49820;33.966;73.390;2023-10-13T10:55:37;15.70;;;8.68;;
63664;SDS011;49820;33.966;73.390;2023-10-13T10:58:06;17.45;;;9.32;;
63664;SDS011;49820;33.966;73.390;2023-10-13T11:00:51;17.75;;;8.70;;
63664;SDS011;49820;33.966;73.390;2023-10-13T11:03:29;19.90;;;9.07;;
63664;SDS011;49820;33.966;73.390;2023-10-13T11:05:58;17.70;;;9.73;;
63664;SDS011;49820;33.966;73.390;2023-10-13T11:08:27;18.00;;;9.60;;
63664;SDS011;49820;33.966;73.390;2023-10-13T11:11:05;21.00;;;10.30;;
63664;SDS011;49820;33.966;73.390;2023-10-13T11:13:45;21.15;;;10.65;;
63664;SDS011;49820;33.966;73.390;2023-10-13T11:16:22;18.83;;;9.43;;
63664;SDS011;49820;33.966;73.390;2023-10-13T11:19:02;21.30;;;10.47;;
63664;SDS011;49820;33.966;73.390;2023-10-13T11:21:33;23.23;;;10.23;;
63664;SDS011;49820;33.966;73.390;2023-10-13T11:24:05;20.77;;;10.80;;
63664;SDS011;49820;33.966;73.390;2023-10-13T11:26:37;29.52;;;14.40;;
63664;SDS011;49820;33.966;73.390;2023-10-13T11:29:30;26.05;;;13.10;;
63664;SDS011;49820;33.966;73.390;2023-10-13T11:32:02;19.13;;;11.32;;
63664;SDS011;49820;33.966;73.390;2023-10-13T11:34:31;25.27;;;11.15;;
63664;SDS011;49820;33.966;73.390;2023-10-13T11:37:09;23.55;;;10.82;;
63664;SDS011;49820;33.966;73.390;2023-10-13T11:39:57;23.55;;;10.40;;
63664;SDS011;49820;33.966;73.390;2023-10-13T11:42:26;20.80;;;10.05;;
63664;SDS011;49820;33.966;73.390;2023-10-13T11:44:57;20.40;;;10.02;;
63664;SDS011;49820;33.966;73.390;2023-10-13T11:47:57;21.70;;;11.55;;
63664;SDS011;49820;33.966;73.390;2023-10-13T11:50:30;21.20;;;11.37;;
63664;SDS011;49820;33.966;73.390;2023-10-13T11:53:03;24.13;;;11.27;;
63664;SDS011;49820;33.966;73.390;2023-10-13T11:55:35;26.00;;;12.00;;
63664;SDS011;49820;33.966;73.390;2023-10-13T11:58:04;25.97;;;11.33;;
63664;SDS011;49820;33.966;73.390;2023-10-13T12:00:34;25.25;;;12.30;;
63664;SDS011;49820;33.966;73.390;2023-10-13T12:03:21;20.77;;;12.23;;
63664;SDS011;49820;33.966;73.390;2023-10-13T12:06:08;25.98;;;12.23;;
63664;SDS011;49820;33.966;73.390;2023-10-13T12:08:55;26.27;;;12.50;;
63664;SDS011;49820;33.966;73.390;2023-10-13T12:11:39;25.40;;;12.48;;
63664;SDS011;49820;33.966;73.390;2023-10-13T12:14:13;23.97;;;13.07;;
63664;SDS011;49820;33.966;73.390;2023-10-13T12:17:06;25.38;;;13.02;;
63664;SDS011;49820;33.966;73.390;2023-10-13T12:19:38;29.33;;;12.73;;
63664;SDS011;49820;33.966;73.390;2023-10-13T12:22:09;24.90;;;13.65;;
63664;SDS011;49820;33.966;73.390;2023-10-13T12:24:44;27.87;;;14.00;;
63664;SDS011;49820;33.966;73.390;2023-10-13T12:27:21;28.60;;;14.93;;
63664;SDS011;49820;33.966;73.390;2023-10-13T12:30:16;29.52;;;14.75;;
63664;SDS011;49820;33.966;73.390;2023-10-13T12:32:50;34.70;;;16.10;;
63664;SDS011;49820;33.966;73.390;2023-10-13T12:35:26;27.92;;;14.95;;
63664;SDS011;49820;33.966;73.390;2023-10-13T12:38:24;31.38;;;14.60;;
63664;SDS011;49820;33.966;73.390;2023-10-13T12:41:19;32.28;;;15.70;;
63664;SDS011;49820;33.966;73.390;2023-10-13T12:44:07;25.75;;;13.63;;
63664;SDS011;49820;33.966;73.390;2023-10-13T12:46:57;25.73;;;13.27;;
63664;SDS011;49820;33.966;73.390;2023-10-13T12:49:45;19.52;;;9.73;;
63664;SDS011;49820;33.966;73.390;2023-10-13T12:52:13;19.45;;;8.90;;
63664;SDS011;49820;33.966;73.390;2023-10-13T12:54:54;14.55;;;6.07;;
63664;SDS011;49820;33.966;73.390;2023-10-13T12:57:26;11.65;;;5.88;;
63664;SDS011;49820;33.966;73.390;2023-10-13T12:59:56;14.35;;;5.72;;
63664;SDS011;49820;33.966;73.390;2023-10-13T13:02:25;11.95;;;5.95;;
63664;SDS011;49820;33.966;73.390;2023-10-13T13:04:56;15.98;;;6.47;;
63664;SDS011;49820;33.966;73.390;2023-10-13T13:07:34;15.10;;;6.22;;
63664;SDS011;49820;33.966;73.390;2023-10-13T13:10:11;13.38;;;6.50;;
63664;SDS011;49820;33.966;73.390;2023-10-13T13:12:42;14.43;;;6.17;;
63664;SDS011;49820;33.966;73.390;2023-10-13T13:15:11;17.17;;;6.65;;
63664;SDS011;49820;33.966;73.390;2023-10-13T13:17:40;13.90;;;6.40;;
63664;SDS011;49820;33.966;73.390;2023-10-13T13:20:10;15.52;;;7.25;;
63664;SDS011;49820;33.966;73.390;2023-10-13T13:22:39;15.83;;;8.17;;
63664;SDS011;49820;33.966;73.390;2023-10-13T13:25:08;17.63;;;7.53;;
63664;SDS011;49820;33.966;73.390;2023-10-13T13:27:38;15.30;;;7.43;;
63664;SDS011;49820;33.966;73.390;2023-10-13T13:30:09;15.30;;;7.67;;
63664;SDS011;49820;33.966;73.390;2023-10-13T13:32:42;18.88;;;8.35;;
63664;SDS011;49820;33.966;73.390;2023-10-13T13:35:13;16.70;;;9.00;;
63664;SDS011;49820;33.966;73.390;2023-10-13T13:37:46;20.20;;;9.60;;
63664;SDS011;49820;33.966;73.390;2023-10-13T13:40:15;20.65;;;10.13;;
63664;SDS011;49820;33.966;73.390;2023-10-13T13:42:46;21.85;;;11.05;;
63664;SDS011;49820;33.966;73.390;2023-10-13T13:45:18;21.45;;;10.60;;
63664;SDS011;49820;33.966;73.390;2023-10-13T13:47:55;18.17;;;10.50;;
63664;SDS011;49820;33.966;73.390;2023-10-13T13:50:24;17.30;;;9.73;;
63664;SDS011;49820;33.966;73.390;2023-10-13T13:52:59;18.25;;;9.23;;
63664;SDS011;49820;33.966;73.390;2023-10-13T13:55:33;19.63;;;9.15;;
63664;SDS011;49820;33.966;73.390;2023-10-13T13:58:02;16.20;;;8.32;;
63664;SDS011;49820;33.966;73.390;2023-10-13T14:00:37;17.00;;;7.70;;
63664;SDS011;49820;33.966;73.390;2023-10-13T14:03:16;16.88;;;8.25;;
63664;SDS011;49820;33.966;73.390;2023-10-13T14:06:01;17.87;;;8.63;;
63664;SDS011;49820;33.966;73.390;2023-10-13T14:08:31;18.30;;;8.85;;
63664;SDS011;49820;33.966;73.390;2023-10-13T14:11:00;16.85;;;8.35;;
63664;SDS011;49820;33.966;73.390;2023-10-13T14:13:42;15.82;;;7.75;;
63664;SDS011;49820;33.966;73.390;2023-10-13T14:16:20;16.45;;;7.10;;
63664;SDS011;49820;33.966;73.390;2023-10-13T14:18:51;13.30;;;6.77;;
63664;SDS011;49820;33.966;73.390;2023-10-13T14:21:20;13.43;;;7.13;;
63664;SDS011;49820;33.966;73.390;2023-10-13T14:23:54;15.93;;;7.50;;
63664;SDS011;49820;33.966;73.390;2023-10-13T14:26:23;16.42;;;6.55;;
63664;SDS011;49820;33.966;73.390;2023-10-13T14:28:53;15.27;;;6.03;;
63664;SDS011;49820;33.966;73.390;2023-10-13T14:31:35;11.77;;;6.80;;
63664;SDS011;49820;33.966;73.390;2023-10-13T14:34:05;13.25;;;7.10;;
63664;SDS011;49820;33.966;73.390;2023-10-13T14:36:37;11.90;;;5.80;;
63664;SDS011;49820;33.966;73.390;2023-10-13T14:39:06;9.80;;;5.90;;
63664;SDS011;49820;33.966;73.390;2023-10-13T14:41:38;10.73;;;5.50;;
63664;SDS011;49820;33.966;73.390;2023-10-13T14:44:07;10.20;;;5.55;;
63664;SDS011;49820;33.966;73.390;2023-10-13T14:46:37;11.27;;;5.68;;
63664;SDS011;49820;33.966;73.390;2023-10-13T14:49:09;11.18;;;5.13;;
63664;SDS011;49820;33.966;73.390;2023-10-13T14:51:40;13.27;;;5.50;;
63664;SDS011;49820;33.966;73.390;2023-10-13T14:54:09;12.77;;;5.53;;
63664;SDS011;49820;33.966;73.390;2023-10-13T14:56:38;11.90;;;6.03;;
63664;SDS011;49820;33.966;73.390;2023-10-13T14:59:10;14.18;;;6.13;;
63664;SDS011;49820;33.966;73.390;2023-10-13T15:01:47;13.17;;;6.60;;
63664;SDS011;49820;33.966;73.390;2023-10-13T15:04:17;14.57;;;6.90;;
63664;SDS011;49820;33.966;73.390;2023-10-13T15:06:46;10.27;;;6.65;;
63664;SDS011;49820;33.966;73.390;2023-10-13T15:09:15;11.00;;;6.75;;
63664;SDS011;49820;33.966;73.390;2023-10-13T15:11:51;12.63;;;7.18;;
63664;SDS011;49820;33.966;73.390;2023-10-13T15:14:21;12.48;;;6.70;;
63664;SDS011;49820;33.966;73.390;2023-10-13T15:16:51;14.20;;;8.18;;
63664;SDS011;49820;33.966;73.390;2023-10-13T15:19:23;13.85;;;7.07;;
63664;SDS011;49820;33.966;73.390;2023-10-13T15:21:52;9.88;;;6.65;;
63664;SDS011;49820;33.966;73.390;2023-10-13T15:24:23;18.60;;;6.97;;
63664;SDS011;49820;33.966;73.390;2023-10-13T15:26:59;13.77;;;6.60;;